createdAt,value
2023-03-19T00:00:20.489Z,10.64
2023-03-19T00:01:20.486Z,10.62
2023-03-19T00:02:20.588Z,10.69
2023-03-19T00:03:20.504Z,10.68
2023-03-19T00:04:20.394Z,10.64
2023-03-19T00:05:20.400Z,10.72
2023-03-19T00:06:20.338Z,10.64
2023-03-19T00:07:20.314Z,10.64
2023-03-19T00:08:20.282Z,10.64
2023-03-19T00:09:20.250Z,10.65
2023-03-19T00:10:20.275Z,10.65
2023-03-19T00:11:20.234Z,10.65
2023-03-19T00:12:20.205Z,10.69
2023-03-19T00:13:20.186Z,10.65
2023-03-19T00:14:20.157Z,10.65
2023-03-19T00:15:20.101Z,10.61
2023-03-19T00:16:20.102Z,10.71
2023-03-19T00:17:20.083Z,10.71
2023-03-19T00:18:20.032Z,10.64
2023-03-19T00:19:19.996Z,10.69
2023-03-19T00:20:19.971Z,10.69
2023-03-19T00:21:19.935Z,10.67
2023-03-19T00:22:19.914Z,10.79
2023-03-19T00:23:19.923Z,10.75
2023-03-19T00:24:19.859Z,10.76
2023-03-19T00:25:19.832Z,10.82
2023-03-19T00:26:19.836Z,10.77
2023-03-19T00:27:19.776Z,10.80
2023-03-19T00:28:19.752Z,10.84
2023-03-19T00:29:19.732Z,10.79
2023-03-19T00:30:19.715Z,10.80
2023-03-19T00:31:19.674Z,10.80
2023-03-19T00:32:19.661Z,10.79
2023-03-19T00:33:19.626Z,10.79
2023-03-19T00:34:19.713Z,10.80
2023-03-19T00:35:19.588Z,10.82
2023-03-19T00:36:19.533Z,10.82
2023-03-19T00:37:19.547Z,10.79
2023-03-19T00:38:19.491Z,10.82
2023-03-19T00:39:19.467Z,10.82
2023-03-19T00:40:19.425Z,10.87
2023-03-19T00:41:19.419Z,10.80
2023-03-19T00:42:19.388Z,10.94
2023-03-19T00:43:19.352Z,10.94
2023-03-19T00:44:19.343Z,10.89
2023-03-19T00:45:19.360Z,10.87
2023-03-19T00:46:19.305Z,10.86
2023-03-19T00:47:19.259Z,10.97
2023-03-19T00:48:19.248Z,10.89
2023-03-19T00:49:19.203Z,10.89
2023-03-19T00:50:19.191Z,10.98
2023-03-19T00:51:19.143Z,11.02
2023-03-19T00:52:19.133Z,11.08
2023-03-19T00:53:19.097Z,11.10
2023-03-19T00:54:19.064Z,11.05
2023-03-19T00:55:19.031Z,11.07
2023-03-19T00:56:19.016Z,11.08
2023-03-19T00:57:19.208Z,11.08
2023-03-19T00:58:18.967Z,11.13
2023-03-19T00:59:18.946Z,11.10
2023-03-19T01:00:18.907Z,11.12
2023-03-19T01:01:18.938Z,11.10
2023-03-19T01:02:18.851Z,11.18
2023-03-19T01:03:18.850Z,11.12
2023-03-19T01:04:18.863Z,11.13
2023-03-19T01:05:18.771Z,11.16
2023-03-19T01:06:18.764Z,11.12
2023-03-19T01:07:18.744Z,11.19
2023-03-19T01:08:18.701Z,11.13
2023-03-19T01:09:18.740Z,11.08
2023-03-19T01:10:18.643Z,11.22
2023-03-19T01:11:18.615Z,11.02
2023-03-19T01:12:18.594Z,11.12
2023-03-19T01:13:18.540Z,11.08
2023-03-19T01:14:18.527Z,11.08
2023-03-19T01:15:18.513Z,11.07
2023-03-19T01:16:18.487Z,11.16
2023-03-19T01:17:18.460Z,11.08
2023-03-19T01:18:18.428Z,11.04
2023-03-19T01:19:18.419Z,11.08
2023-03-19T01:20:18.373Z,11.05
2023-03-19T01:21:18.354Z,11.05
2023-03-19T01:22:18.371Z,11.08
2023-03-19T01:23:18.333Z,11.10
2023-03-19T01:24:18.297Z,11.05
2023-03-19T01:25:18.264Z,11.13
2023-03-19T01:26:18.226Z,11.15
2023-03-19T01:27:18.223Z,11.12
2023-03-19T01:28:18.203Z,11.15
2023-03-19T01:29:18.155Z,11.15
2023-03-19T01:30:18.130Z,11.13
2023-03-19T01:31:18.182Z,11.05
2023-03-19T01:32:18.057Z,11.08
2023-03-19T01:33:18.039Z,11.18
2023-03-19T01:34:18.022Z,11.15
2023-03-19T01:35:17.998Z,11.18
2023-03-19T01:36:17.938Z,11.25
2023-03-19T01:37:17.947Z,11.15
2023-03-19T01:38:17.926Z,11.13
2023-03-19T01:39:17.892Z,11.13
2023-03-19T01:40:17.856Z,11.16
2023-03-19T01:41:17.842Z,11.12
2023-03-19T01:42:17.798Z,11.16
2023-03-19T01:43:17.780Z,11.05
2023-03-19T01:44:17.765Z,11.04
2023-03-19T01:45:17.751Z,11.12
2023-03-19T01:46:17.720Z,11.08
2023-03-19T01:47:17.680Z,11.05
2023-03-19T01:48:17.638Z,11.05
2023-03-19T01:49:17.654Z,11.08
2023-03-19T01:50:17.615Z,11.12
2023-03-19T01:51:17.589Z,11.15
2023-03-19T01:52:17.565Z,11.05
2023-03-19T01:53:17.529Z,11.08
2023-03-19T01:54:17.533Z,11.05
2023-03-19T01:55:17.450Z,11.07
2023-03-19T01:56:17.449Z,11.00
2023-03-19T01:57:17.437Z,10.98
2023-03-19T01:58:17.393Z,11.05
2023-03-19T01:59:17.366Z,11.07
2023-03-19T02:00:17.322Z,11.12
2023-03-19T02:01:17.314Z,11.10
2023-03-19T02:02:17.279Z,11.13
2023-03-19T02:03:17.252Z,11.10
2023-03-19T02:04:17.318Z,11.07
2023-03-19T02:05:17.195Z,11.15
2023-03-19T02:06:17.179Z,11.12
2023-03-19T02:07:17.153Z,11.07
2023-03-19T02:08:17.122Z,11.02
2023-03-19T02:09:17.077Z,10.98
2023-03-19T02:10:17.104Z,10.92
2023-03-19T02:11:17.051Z,11.01
2023-03-19T02:12:16.998Z,11.07
2023-03-19T02:13:17.037Z,11.10
2023-03-19T02:14:16.956Z,11.07
2023-03-19T02:15:16.942Z,11.13
2023-03-19T02:16:16.977Z,11.00
2023-03-19T02:17:16.870Z,11.07
2023-03-19T02:18:16.874Z,11.12
2023-03-19T02:19:16.837Z,11.13
2023-03-19T02:20:16.824Z,11.08
2023-03-19T02:21:16.780Z,11.01
2023-03-19T02:22:16.750Z,11.01
2023-03-19T02:23:16.723Z,10.98
2023-03-19T02:24:16.676Z,11.02
2023-03-19T02:25:16.684Z,11.04
2023-03-19T02:26:16.660Z,11.02
2023-03-19T02:27:16.609Z,10.97
2023-03-19T02:28:16.595Z,10.92
2023-03-19T02:29:16.556Z,10.92
2023-03-19T02:30:16.538Z,10.92
2023-03-19T02:31:16.539Z,10.89
2023-03-19T02:32:16.508Z,10.84
2023-03-19T02:33:16.473Z,10.97
2023-03-19T02:34:16.445Z,10.89
2023-03-19T02:35:16.416Z,10.90
2023-03-19T02:36:16.390Z,10.94
2023-03-19T02:37:16.350Z,10.92
2023-03-19T02:38:16.407Z,10.92
2023-03-19T02:39:16.299Z,10.84
2023-03-19T02:40:16.261Z,10.94
2023-03-19T02:41:16.252Z,10.90
2023-03-19T02:42:16.217Z,10.89
2023-03-19T02:43:16.267Z,10.83
2023-03-19T02:44:16.178Z,10.80
2023-03-19T02:45:16.154Z,10.80
2023-03-19T02:46:16.142Z,10.84
2023-03-19T02:47:16.088Z,10.77
2023-03-19T02:48:16.053Z,10.83
2023-03-19T02:49:16.038Z,10.83
2023-03-19T02:50:16.017Z,10.89
2023-03-19T02:51:16.000Z,10.84
2023-03-19T02:52:15.960Z,10.84
2023-03-19T02:53:15.966Z,10.90
2023-03-19T02:54:15.923Z,10.84
2023-03-19T02:55:15.853Z,10.86
2023-03-19T02:56:15.853Z,10.77
2023-03-19T02:57:15.816Z,10.92
2023-03-19T02:58:15.846Z,10.84
2023-03-19T02:59:15.782Z,10.84
2023-03-19T03:00:15.781Z,10.89
2023-03-19T03:01:15.773Z,10.84
2023-03-19T03:02:15.804Z,10.83
2023-03-19T03:03:15.717Z,10.92
2023-03-19T03:04:15.697Z,10.80
2023-03-19T03:05:15.674Z,10.82
2023-03-19T03:06:15.652Z,10.83
2023-03-19T03:07:15.568Z,10.75
2023-03-19T03:08:15.542Z,10.84
2023-03-19T03:09:15.501Z,10.79
2023-03-19T03:10:15.515Z,10.84
2023-03-19T03:11:15.443Z,10.90
2023-03-19T03:12:15.447Z,10.87
2023-03-19T03:13:15.400Z,10.77
2023-03-19T03:14:15.435Z,10.80
2023-03-19T03:15:15.384Z,10.77
2023-03-19T03:16:15.408Z,10.76
2023-03-19T03:17:15.323Z,10.76
2023-03-19T03:18:15.303Z,10.76
2023-03-19T03:19:15.245Z,10.76
2023-03-19T03:20:15.232Z,10.72
2023-03-19T03:21:15.236Z,10.75
2023-03-19T03:22:15.188Z,10.68
2023-03-19T03:23:15.153Z,10.64
2023-03-19T03:24:15.107Z,10.64
2023-03-19T03:25:15.077Z,10.67
2023-03-19T03:26:15.044Z,10.61
2023-03-19T03:27:15.050Z,10.61
2023-03-19T03:28:15.018Z,10.69
2023-03-19T03:29:14.962Z,10.61
2023-03-19T03:30:14.979Z,10.64
2023-03-19T03:31:14.968Z,10.68
2023-03-19T03:32:14.905Z,10.64
2023-03-19T03:33:14.886Z,10.77
2023-03-19T03:34:14.856Z,10.65
2023-03-19T03:35:14.821Z,10.71
2023-03-19T03:36:14.805Z,10.62
2023-03-19T03:37:14.768Z,10.68
2023-03-19T03:38:14.733Z,10.68
2023-03-19T03:39:14.721Z,10.64
2023-03-19T03:40:14.691Z,10.62
2023-03-19T03:41:14.651Z,10.68
2023-03-19T03:42:14.646Z,10.65
2023-03-19T03:43:14.606Z,10.64
2023-03-19T03:44:14.573Z,10.62
2023-03-19T03:45:14.572Z,10.61
2023-03-19T03:46:14.708Z,10.65
2023-03-19T03:47:14.515Z,10.69
2023-03-19T03:48:14.467Z,10.65
2023-03-19T03:49:14.446Z,10.68
2023-03-19T03:50:14.418Z,10.55
2023-03-19T03:51:14.408Z,10.69
2023-03-19T03:52:14.380Z,10.57
2023-03-19T03:53:14.340Z,10.57
2023-03-19T03:54:14.331Z,10.71
2023-03-19T03:55:14.292Z,10.68
2023-03-19T03:56:14.289Z,10.69
2023-03-19T03:57:14.231Z,10.69
2023-03-19T03:58:14.193Z,10.67
2023-03-19T03:59:14.163Z,10.67
2023-03-19T04:00:14.158Z,10.68
2023-03-19T04:01:14.123Z,10.79
2023-03-19T04:02:14.169Z,10.67
2023-03-19T04:03:14.126Z,10.71
2023-03-19T04:04:14.071Z,10.67
2023-03-19T04:05:14.008Z,10.62
2023-03-19T04:06:14.004Z,10.75
2023-03-19T04:07:13.984Z,10.79
2023-03-19T04:08:13.952Z,10.77
2023-03-19T04:09:13.906Z,10.76
2023-03-19T04:10:13.902Z,10.79
2023-03-19T04:11:13.909Z,10.75
2023-03-19T04:12:13.837Z,10.79
2023-03-19T04:13:13.826Z,10.87
2023-03-19T04:14:13.797Z,10.83
2023-03-19T04:15:13.757Z,10.94
2023-03-19T04:16:13.794Z,10.84
2023-03-19T04:17:13.687Z,10.90
2023-03-19T04:18:13.692Z,11.01
2023-03-19T04:19:13.655Z,11.08
2023-03-19T04:20:13.678Z,11.05
2023-03-19T04:21:13.623Z,11.01
2023-03-19T04:22:13.582Z,11.07
2023-03-19T04:23:13.540Z,11.07
2023-03-19T04:24:13.508Z,11.15
2023-03-19T04:25:13.496Z,11.05
2023-03-19T04:26:13.483Z,11.05
2023-03-19T04:27:13.450Z,11.02
2023-03-19T04:28:13.426Z,11.10
2023-03-19T04:29:13.367Z,11.08
2023-03-19T04:30:13.383Z,11.08
2023-03-19T04:31:13.508Z,11.04
2023-03-19T04:32:13.303Z,11.13
2023-03-19T04:33:13.373Z,11.12
2023-03-19T04:34:13.287Z,11.04
2023-03-19T04:35:13.214Z,11.07
2023-03-19T04:36:13.198Z,11.05
2023-03-19T04:37:13.170Z,11.10
2023-03-19T04:38:13.138Z,11.10
2023-03-19T04:39:13.118Z,11.01
2023-03-19T04:40:13.108Z,11.00
2023-03-19T04:41:13.053Z,11.00
2023-03-19T04:42:13.083Z,10.90
2023-03-19T04:43:13.009Z,10.90
2023-03-19T04:44:13.010Z,10.90
2023-03-19T04:45:12.974Z,10.83
2023-03-19T04:46:12.947Z,10.79
2023-03-19T04:47:12.898Z,10.76
2023-03-19T04:48:12.886Z,10.65
2023-03-19T04:49:12.861Z,10.68
2023-03-19T04:50:12.850Z,10.57
2023-03-19T04:51:12.809Z,10.62
2023-03-19T04:52:12.778Z,10.59
2023-03-19T04:53:12.724Z,10.61
2023-03-19T04:54:12.704Z,10.59
2023-03-19T04:55:12.682Z,10.57
2023-03-19T04:56:12.666Z,10.58
2023-03-19T04:57:12.644Z,10.58
2023-03-19T04:58:12.619Z,10.53
2023-03-19T04:59:12.563Z,10.55
2023-03-19T05:00:12.553Z,10.45
2023-03-19T05:01:12.568Z,10.48
2023-03-19T05:02:12.488Z,10.58
2023-03-19T05:03:12.493Z,10.49
2023-03-19T05:04:12.536Z,10.43
2023-03-19T05:05:12.402Z,10.51
2023-03-19T05:06:12.409Z,10.51
2023-03-19T05:07:12.362Z,10.53
2023-03-19T05:08:12.349Z,10.48
2023-03-19T05:09:12.310Z,10.57
2023-03-19T05:10:12.289Z,10.58
2023-03-19T05:11:12.279Z,10.49
2023-03-19T05:12:12.231Z,10.64
2023-03-19T05:13:12.189Z,10.57
2023-03-19T05:14:12.170Z,10.58
2023-03-19T05:15:12.161Z,10.61
2023-03-19T05:16:12.177Z,10.49
2023-03-19T05:17:12.098Z,10.59
2023-03-19T05:18:12.085Z,10.62
2023-03-19T05:19:12.046Z,10.61
2023-03-19T05:20:12.017Z,10.58
2023-03-19T05:21:11.996Z,10.62
2023-03-19T05:22:11.997Z,10.58
2023-03-19T05:23:11.941Z,10.59
2023-03-19T05:24:11.935Z,10.49
2023-03-19T05:25:11.870Z,10.67
2023-03-19T05:26:11.903Z,10.59
2023-03-19T05:27:11.842Z,10.58
2023-03-19T05:28:11.818Z,10.58
2023-03-19T05:29:11.787Z,10.64
2023-03-19T05:30:11.758Z,10.57
2023-03-19T05:31:11.786Z,10.65
2023-03-19T05:32:11.730Z,10.57
2023-03-19T05:33:11.702Z,10.53
2023-03-19T05:34:11.647Z,10.57
2023-03-19T05:35:11.625Z,10.61
2023-03-19T05:36:11.583Z,10.58
2023-03-19T05:37:11.565Z,10.65
2023-03-19T05:38:11.551Z,10.64
2023-03-19T05:39:11.511Z,10.61
2023-03-19T05:40:11.489Z,10.57
2023-03-19T05:41:11.451Z,10.61
2023-03-19T05:42:11.451Z,10.71
2023-03-19T05:43:11.414Z,10.65
2023-03-19T05:44:11.388Z,10.62
2023-03-19T05:45:11.354Z,10.68
2023-03-19T05:46:11.398Z,10.67
2023-03-19T05:47:11.296Z,10.64
2023-03-19T05:48:11.264Z,10.68
2023-03-19T05:49:11.274Z,10.77
2023-03-19T05:50:11.213Z,10.62
2023-03-19T05:51:11.205Z,10.76
2023-03-19T05:52:11.176Z,10.77
2023-03-19T05:53:11.133Z,10.82
2023-03-19T05:54:11.167Z,10.75
2023-03-19T05:55:11.112Z,10.83
2023-03-19T05:56:11.060Z,10.84
2023-03-19T05:57:11.028Z,10.80
2023-03-19T05:58:11.031Z,10.84
2023-03-19T05:59:10.985Z,10.80
2023-03-19T06:00:10.973Z,10.89
2023-03-19T06:01:11.007Z,10.92
2023-03-19T06:02:10.874Z,10.89
2023-03-19T06:03:10.996Z,10.87
2023-03-19T06:04:10.938Z,10.95
2023-03-19T06:05:10.801Z,10.92
2023-03-19T06:06:10.795Z,10.87
2023-03-19T06:07:10.760Z,10.90
2023-03-19T06:08:10.744Z,10.94
2023-03-19T06:09:10.714Z,10.95
2023-03-19T06:10:10.689Z,11.00
2023-03-19T06:11:10.676Z,11.01
2023-03-19T06:12:10.617Z,11.02
2023-03-19T06:13:10.585Z,11.04
2023-03-19T06:14:10.567Z,11.00
2023-03-19T06:15:10.555Z,10.98
2023-03-19T06:16:10.619Z,11.01
2023-03-19T06:17:10.502Z,11.05
2023-03-19T06:18:10.481Z,11.01
2023-03-19T06:19:10.442Z,11.01
2023-03-19T06:20:10.424Z,11.01
2023-03-19T06:21:10.379Z,10.98
2023-03-19T06:22:10.367Z,11.05
2023-03-19T06:23:10.326Z,11.10
2023-03-19T06:24:10.298Z,11.05
2023-03-19T06:25:10.285Z,11.08
2023-03-19T06:26:10.262Z,11.13
2023-03-19T06:27:10.245Z,11.16
2023-03-19T06:28:10.205Z,11.15
2023-03-19T06:29:10.163Z,11.16
2023-03-19T06:30:10.179Z,11.15
2023-03-19T06:31:10.198Z,11.10
2023-03-19T06:32:10.116Z,11.16
2023-03-19T06:33:10.165Z,11.20
2023-03-19T06:34:10.066Z,11.22
2023-03-19T06:35:10.011Z,11.22
2023-03-19T06:36:09.990Z,11.16
2023-03-19T06:37:09.977Z,11.25
2023-03-19T06:38:09.950Z,11.26
2023-03-19T06:39:09.919Z,11.23
2023-03-19T06:40:09.890Z,11.23
2023-03-19T06:41:09.857Z,11.20
2023-03-19T06:42:09.898Z,11.27
2023-03-19T06:43:09.804Z,11.23
2023-03-19T06:44:09.786Z,11.30
2023-03-19T06:45:09.745Z,11.34
2023-03-19T06:46:11.535Z,11.34
2023-03-19T06:47:09.709Z,11.37
2023-03-19T06:48:09.665Z,11.38
2023-03-19T06:49:09.659Z,11.40
2023-03-19T06:50:09.605Z,11.44
2023-03-19T06:51:09.601Z,11.44
2023-03-19T06:52:09.588Z,11.48
2023-03-19T06:53:09.562Z,11.44
2023-03-19T06:54:09.536Z,11.58
2023-03-19T06:55:09.494Z,11.53
2023-03-19T06:56:09.497Z,11.51
2023-03-19T06:57:09.478Z,11.58
2023-03-19T06:58:09.438Z,11.56
2023-03-19T06:59:09.401Z,11.53
2023-03-19T07:00:09.359Z,11.62
2023-03-19T07:01:09.400Z,11.56
2023-03-19T07:02:10.082Z,11.53
2023-03-19T07:03:09.287Z,11.58
2023-03-19T07:04:09.383Z,11.68
2023-03-19T07:05:09.228Z,11.68
2023-03-19T07:06:09.199Z,11.70
2023-03-19T07:07:09.175Z,11.68
2023-03-19T07:08:09.167Z,11.56
2023-03-19T07:09:09.146Z,11.70
2023-03-19T07:10:09.118Z,11.65
2023-03-19T07:11:09.091Z,11.70
2023-03-19T07:12:09.044Z,11.68
2023-03-19T07:13:09.023Z,11.81
2023-03-19T07:14:09.010Z,11.73
2023-03-19T07:15:08.989Z,11.74
2023-03-19T07:16:09.036Z,11.88
2023-03-19T07:17:10.394Z,11.78
2023-03-19T07:18:08.892Z,11.76
2023-03-19T07:19:08.865Z,11.86
2023-03-19T07:20:08.830Z,11.83
2023-03-19T07:21:08.839Z,11.86
2023-03-19T07:22:08.792Z,11.81
2023-03-19T07:23:08.765Z,11.85
2023-03-19T07:24:08.752Z,11.80
2023-03-19T07:25:08.695Z,11.85
2023-03-19T07:26:08.668Z,11.83
2023-03-19T07:27:08.663Z,11.81
2023-03-19T07:28:08.641Z,11.77
2023-03-19T07:29:08.610Z,11.74
2023-03-19T07:30:08.609Z,11.73
2023-03-19T07:31:08.550Z,11.85
2023-03-19T07:32:08.528Z,11.74
2023-03-19T07:33:08.587Z,11.74
2023-03-19T07:34:08.472Z,11.80
2023-03-19T07:35:08.437Z,11.81
2023-03-19T07:36:08.402Z,11.77
2023-03-19T07:37:08.398Z,11.81
2023-03-19T07:38:08.381Z,11.67
2023-03-19T07:39:08.338Z,11.73
2023-03-19T07:40:08.313Z,11.81
2023-03-19T07:41:08.287Z,11.74
2023-03-19T07:42:08.274Z,11.77
2023-03-19T07:43:08.221Z,11.78
2023-03-19T07:44:08.210Z,11.86
2023-03-19T07:45:08.167Z,11.81
2023-03-19T07:46:08.237Z,11.85
2023-03-19T07:47:16.075Z,11.91
2023-03-19T07:48:08.093Z,11.78
2023-03-19T07:49:08.084Z,11.83
2023-03-19T07:50:08.041Z,11.89
2023-03-19T07:51:08.024Z,12.00
2023-03-19T07:52:08.007Z,12.00
2023-03-19T07:53:07.977Z,11.93
2023-03-19T07:54:07.951Z,11.91
2023-03-19T07:55:07.942Z,11.96
2023-03-19T07:56:07.908Z,11.95
2023-03-19T07:57:08.311Z,11.95
2023-03-19T07:58:07.969Z,11.97
2023-03-19T07:59:07.843Z,11.96
2023-03-19T08:00:07.839Z,11.89
2023-03-19T08:01:07.762Z,11.95
2023-03-19T08:02:07.872Z,11.93
2023-03-19T08:03:07.715Z,11.97
2023-03-19T08:04:07.725Z,12.00
2023-03-19T08:05:07.688Z,12.05
2023-03-19T08:06:07.630Z,12.11
2023-03-19T08:07:07.608Z,12.05
2023-03-19T08:08:07.578Z,12.11
2023-03-19T08:09:07.548Z,12.10
2023-03-19T08:10:07.529Z,12.17
2023-03-19T08:11:07.734Z,12.14
2023-03-19T08:12:07.552Z,12.14
2023-03-19T08:13:07.475Z,12.12
2023-03-19T08:14:07.419Z,12.15
2023-03-19T08:15:07.393Z,12.17
2023-03-19T08:16:07.340Z,12.10
2023-03-19T08:17:07.426Z,12.17
2023-03-19T08:18:07.324Z,12.23
2023-03-19T08:19:07.288Z,12.26
2023-03-19T08:20:07.270Z,12.25
2023-03-19T08:21:07.230Z,12.36
2023-03-19T08:22:07.215Z,12.36
2023-03-19T08:23:07.249Z,12.36
2023-03-19T08:24:07.196Z,12.33
2023-03-19T08:25:07.150Z,12.32
2023-03-19T08:26:07.127Z,12.25
2023-03-19T08:27:07.069Z,12.25
2023-03-19T08:28:07.055Z,12.30
2023-03-19T08:29:07.128Z,12.29
2023-03-19T08:30:07.042Z,12.33
2023-03-19T08:31:07.021Z,12.30
2023-03-19T08:32:06.958Z,12.30
2023-03-19T08:33:07.011Z,12.37
2023-03-19T08:34:06.899Z,12.33
2023-03-19T08:35:06.892Z,12.36
2023-03-19T08:36:06.867Z,12.39
2023-03-19T08:37:06.893Z,12.36
2023-03-19T08:38:06.786Z,12.44
2023-03-19T08:39:06.773Z,12.53
2023-03-19T08:40:06.747Z,12.45
2023-03-19T08:41:06.726Z,12.53
2023-03-19T08:42:06.699Z,12.45
2023-03-19T08:43:06.778Z,12.58
2023-03-19T08:44:06.634Z,12.53
2023-03-19T08:45:06.606Z,12.55
2023-03-19T08:46:06.684Z,12.57
2023-03-19T08:47:06.570Z,12.61
2023-03-19T08:48:06.639Z,12.62
2023-03-19T08:49:06.532Z,12.65
2023-03-19T08:50:06.809Z,12.57
2023-03-19T08:51:06.447Z,12.62
2023-03-19T08:52:06.448Z,12.63
2023-03-19T08:53:06.490Z,12.58
2023-03-19T08:54:06.411Z,12.65
2023-03-19T08:55:06.353Z,12.61
2023-03-19T08:56:06.338Z,12.76
2023-03-19T08:57:06.417Z,12.73
2023-03-19T08:58:06.277Z,12.78
2023-03-19T08:59:06.265Z,12.73
2023-03-19T09:00:06.229Z,12.72
2023-03-19T09:01:06.240Z,12.76
2023-03-19T09:02:06.322Z,12.76
2023-03-19T09:03:06.155Z,12.72
2023-03-19T09:04:06.129Z,12.80
2023-03-19T09:05:06.122Z,12.80
2023-03-19T09:06:06.106Z,12.75
2023-03-19T09:07:06.201Z,12.80
2023-03-19T09:08:06.026Z,12.78
2023-03-19T09:09:06.041Z,12.75
2023-03-19T09:10:05.984Z,12.84
2023-03-19T09:11:06.147Z,12.80
2023-03-19T09:12:06.158Z,12.80
2023-03-19T09:13:05.924Z,12.80
2023-03-19T09:14:05.989Z,12.81
2023-03-19T09:15:05.910Z,12.69
2023-03-19T09:16:05.985Z,12.69
2023-03-19T09:17:05.787Z,12.70
2023-03-19T09:18:05.774Z,12.75
2023-03-19T09:19:05.755Z,12.73
2023-03-19T09:20:05.730Z,12.83
2023-03-19T09:21:05.693Z,12.78
2023-03-19T09:22:05.675Z,12.73
2023-03-19T09:23:05.631Z,12.70
2023-03-19T09:24:05.632Z,12.76
2023-03-19T09:25:05.597Z,12.73
2023-03-19T09:26:05.579Z,12.73
2023-03-19T09:27:05.608Z,12.84
2023-03-19T09:28:05.554Z,12.76
2023-03-19T09:29:05.491Z,12.72
2023-03-19T09:30:05.477Z,12.65
2023-03-19T09:31:05.687Z,12.72
2023-03-19T09:32:05.409Z,12.73
2023-03-19T09:33:05.502Z,12.57
2023-03-19T09:34:05.400Z,12.57
2023-03-19T09:35:05.411Z,12.61
2023-03-19T09:36:05.367Z,12.63
2023-03-19T09:37:05.303Z,12.63
2023-03-19T09:38:05.337Z,12.57
2023-03-19T09:39:05.233Z,12.65
2023-03-19T09:40:05.210Z,12.75
2023-03-19T09:41:05.200Z,12.78
2023-03-19T09:42:05.164Z,12.70
2023-03-19T09:43:05.129Z,12.80
2023-03-19T09:44:05.124Z,12.84
2023-03-19T09:45:05.090Z,12.84
2023-03-19T09:46:05.039Z,12.83
2023-03-19T09:47:05.099Z,12.90
2023-03-19T09:48:04.997Z,12.87
2023-03-19T09:49:05.005Z,12.91
2023-03-19T09:50:04.960Z,12.93
2023-03-19T09:51:04.941Z,12.86
2023-03-19T09:52:04.956Z,12.88
2023-03-19T09:53:04.873Z,12.90
2023-03-19T09:54:04.953Z,12.93
2023-03-19T09:55:04.810Z,12.88
2023-03-19T09:56:04.783Z,12.73
2023-03-19T09:57:04.772Z,12.84
2023-03-19T09:58:04.741Z,12.80
2023-03-19T09:59:04.735Z,12.75
2023-03-19T10:00:04.713Z,12.78
2023-03-19T10:01:04.678Z,12.73
2023-03-19T10:02:04.761Z,12.81
2023-03-19T10:03:04.640Z,12.76
2023-03-19T10:04:04.677Z,12.78
2023-03-19T10:05:04.591Z,12.78
2023-03-19T10:06:04.589Z,12.70
2023-03-19T10:07:04.540Z,12.73
2023-03-19T10:08:04.485Z,12.73
2023-03-19T10:09:04.484Z,12.73
2023-03-19T10:10:04.468Z,12.80
2023-03-19T10:11:04.408Z,12.75
2023-03-19T10:12:04.426Z,12.80
2023-03-19T10:13:04.375Z,12.70
2023-03-19T10:14:04.341Z,12.75
2023-03-19T10:15:04.317Z,12.83
2023-03-19T10:16:04.348Z,12.80
2023-03-19T10:17:04.302Z,12.84
2023-03-19T10:18:04.254Z,12.81
2023-03-19T10:19:04.252Z,12.78
2023-03-19T10:20:04.189Z,12.76
2023-03-19T10:21:04.176Z,12.70
2023-03-19T10:22:04.143Z,12.76
2023-03-19T10:23:04.149Z,12.81
2023-03-19T10:24:04.096Z,12.81
2023-03-19T10:25:04.168Z,12.80
2023-03-19T10:26:04.079Z,12.86
2023-03-19T10:27:04.003Z,12.86
2023-03-19T10:28:04.035Z,12.87
2023-03-19T10:29:03.988Z,12.87
2023-03-19T10:30:03.972Z,12.87
2023-03-19T10:31:03.910Z,12.93
2023-03-19T10:32:03.900Z,12.88
2023-03-19T10:33:04.021Z,12.88
2023-03-19T10:34:03.822Z,12.91
2023-03-19T10:35:03.822Z,12.94
2023-03-19T10:36:03.783Z,13.05
2023-03-19T10:37:03.796Z,12.99
2023-03-19T10:38:03.782Z,13.05
2023-03-19T10:39:03.702Z,13.05
2023-03-19T10:40:03.705Z,13.01
2023-03-19T10:41:03.686Z,13.02
2023-03-19T10:42:03.641Z,13.06
2023-03-19T10:43:03.646Z,13.03
2023-03-19T10:44:03.685Z,13.05
2023-03-19T10:45:03.550Z,13.03
2023-03-19T10:46:05.027Z,13.03
2023-03-19T10:47:03.516Z,13.06
2023-03-19T10:48:03.492Z,13.06
2023-03-19T10:49:03.607Z,13.05
2023-03-19T10:50:03.439Z,13.03
2023-03-19T10:51:03.418Z,13.06
2023-03-19T10:52:03.372Z,13.12
2023-03-19T10:53:03.386Z,13.06
2023-03-19T10:54:03.367Z,13.09
2023-03-19T10:55:03.318Z,13.19
2023-03-19T10:56:03.314Z,13.20
2023-03-19T10:57:03.260Z,13.21
2023-03-19T10:58:03.343Z,13.31
2023-03-19T10:59:03.224Z,13.28
2023-03-19T11:00:03.207Z,13.31
2023-03-19T11:01:03.252Z,13.37
2023-03-19T11:02:03.146Z,13.28
2023-03-19T11:03:03.133Z,13.37
2023-03-19T11:04:03.115Z,13.50
2023-03-19T11:05:03.049Z,13.57
2023-03-19T11:06:03.071Z,13.73
2023-03-19T11:07:03.284Z,13.85
2023-03-19T11:08:03.033Z,13.82
2023-03-19T11:09:03.243Z,13.68
2023-03-19T11:10:03.204Z,13.80
2023-03-19T11:11:02.909Z,13.67
2023-03-19T11:12:02.909Z,13.80
2023-03-19T11:13:02.852Z,13.73
2023-03-19T11:14:02.865Z,13.83
2023-03-19T11:15:02.879Z,13.79
2023-03-19T11:16:02.798Z,13.86
2023-03-19T11:17:04.555Z,13.83
2023-03-19T11:18:02.752Z,13.78
2023-03-19T11:19:02.706Z,13.83
2023-03-19T11:20:02.707Z,13.83
2023-03-19T11:21:02.673Z,13.82
2023-03-19T11:22:02.657Z,13.91
2023-03-19T11:23:02.633Z,13.79
2023-03-19T11:24:02.604Z,13.85
2023-03-19T11:25:02.562Z,13.91
2023-03-19T11:26:02.556Z,13.93
2023-03-19T11:27:02.520Z,13.97
2023-03-19T11:28:02.533Z,14.11
2023-03-19T11:29:02.470Z,14.11
2023-03-19T11:30:02.463Z,14.13
2023-03-19T11:31:02.437Z,14.08
2023-03-19T11:32:18.689Z,13.97
2023-03-19T11:33:02.438Z,14.03
2023-03-19T11:34:02.354Z,13.98
2023-03-19T11:35:02.325Z,14.01
2023-03-19T11:36:02.324Z,13.93
2023-03-19T11:37:02.283Z,13.91
2023-03-19T11:38:02.270Z,13.85
2023-03-19T11:39:02.215Z,13.80
2023-03-19T11:40:02.225Z,13.73
2023-03-19T11:41:02.218Z,13.80
2023-03-19T11:42:02.158Z,13.80
2023-03-19T11:43:02.145Z,13.80
2023-03-19T11:44:02.186Z,13.82
2023-03-19T11:45:02.112Z,13.79
2023-03-19T11:46:02.124Z,13.71
2023-03-19T11:47:02.105Z,13.68
2023-03-19T11:48:02.085Z,13.67
2023-03-19T11:49:02.010Z,13.78
2023-03-19T11:50:02.005Z,13.83
2023-03-19T11:51:02.018Z,13.79
2023-03-19T11:52:02.017Z,13.73
2023-03-19T11:53:02.203Z,13.79
2023-03-19T11:54:01.940Z,13.76
2023-03-19T11:55:01.902Z,13.82
2023-03-19T11:56:01.802Z,13.89
2023-03-19T11:57:01.771Z,13.93
2023-03-19T11:58:01.768Z,13.86
2023-03-19T11:59:01.742Z,13.89
2023-03-19T12:00:01.729Z,13.87
2023-03-19T12:01:01.678Z,13.93
2023-03-19T12:02:01.797Z,13.82
2023-03-19T12:03:01.621Z,13.94
2023-03-19T12:04:01.783Z,13.94
2023-03-19T12:05:01.629Z,13.85
2023-03-19T12:06:01.593Z,13.83
2023-03-19T12:07:01.558Z,13.82
2023-03-19T12:08:01.518Z,13.86
2023-03-19T12:09:01.495Z,13.87
2023-03-19T12:10:01.475Z,13.91
2023-03-19T12:11:01.463Z,13.91
2023-03-19T12:12:01.423Z,13.86
2023-03-19T12:13:01.418Z,13.82
2023-03-19T12:14:01.400Z,13.83
2023-03-19T12:15:01.351Z,13.87
2023-03-19T12:16:01.384Z,13.86
2023-03-19T12:17:01.299Z,13.76
2023-03-19T12:19:45.290Z,13.80
2023-03-19T12:20:45.299Z,13.76
2023-03-19T12:21:45.291Z,13.79
2023-03-19T12:22:45.242Z,13.80
2023-03-19T12:23:45.205Z,13.80
2023-03-19T12:24:45.198Z,13.76
2023-03-19T12:25:45.185Z,13.80
2023-03-19T12:26:45.150Z,13.83
2023-03-19T12:27:45.141Z,13.76
2023-03-19T12:28:45.100Z,13.76
2023-03-19T12:29:45.069Z,13.83
2023-03-19T12:30:45.124Z,13.85
2023-03-19T12:31:45.124Z,13.79
2023-03-19T12:32:45.024Z,13.68
2023-03-19T12:33:44.990Z,13.67
2023-03-19T12:34:44.944Z,13.61
2023-03-19T12:35:44.976Z,13.55
2023-03-19T12:36:44.878Z,13.57
2023-03-19T12:37:44.879Z,13.57
2023-03-19T12:38:44.864Z,13.52
2023-03-19T12:39:44.878Z,13.46
2023-03-19T12:40:44.805Z,13.47
2023-03-19T12:41:44.758Z,13.42
2023-03-19T12:42:45.038Z,13.47
2023-03-19T12:43:44.736Z,13.47
2023-03-19T12:44:44.717Z,13.50
2023-03-19T12:45:44.814Z,13.50
2023-03-19T12:46:44.722Z,13.62
2023-03-19T12:47:44.611Z,13.55
2023-03-19T12:48:44.578Z,13.55
2023-03-19T12:49:44.602Z,13.60
2023-03-19T12:50:44.554Z,13.61
2023-03-19T12:51:44.621Z,13.57
2023-03-19T12:52:44.574Z,13.58
2023-03-19T12:53:44.485Z,13.57